Hilger, Montana
Current Conditions -  °F | °C
As of 11:54 PM on Friday 24 Oct 2014 (Local Time) from KLWT Reporting Station
Clear Clear  
Wind Chill: 39°   Ceiling: Unl
Heat Index: 43°   Visibility: 10mi
Dew Point: 40°   Wind: 7mph
Humidity: 89%   Direction: 110°ESE
Pressure: 30.11"   Gusts: NA
Location:  47.25°N, 109.36°W
Report Text: KLWT 250554Z AUTO 11006KT 10SM CLR 06/04 A3011 RMK AO2 SLP191 60003 T00610044 10122 20061 55001
Loading
Personal Weather Stations






























Interactive Weather Map
Tropical Storm Tracking
New forecast layout! Learn more

10-Day Weather Forecast

Advertisements
Track Severe Weather on mobile